Time;durP1;ratioP1;P1;durP2;ratioP2;P2;SDS_P1;SDS_P2;PMS_P1;PMS_P2;Temp;Humidity;BMP_temperature;BMP_pressure;BME280_temperature;BME280_humidity;BME280_pressure;Samples;Min_cycle;Max_cycle;Signal;HPM_P1;HPM_P2
2022/10/01 00:02:06;;;;;;;0.10;0.10;;;7.00;99.90;;;7.06;100.00;100221.84;4796030;29;20222;-62
2022/10/01 00:04:36;;;;;;;0.25;0.25;;;7.00;99.90;;;7.03;100.00;100223.50;4812192;29;20254;-62
2022/10/01 00:07:08;;;;;;;0.20;0.20;;;7.00;99.90;;;7.00;100.00;100228.72;4802762;29;20230;-62
2022/10/01 00:09:36;;;;;;;0.20;0.20;;;7.00;99.90;;;6.99;100.00;100235.72;4805409;29;21503;-63
2022/10/01 00:12:04;;;;;;;0.20;0.20;;;7.00;99.90;;;7.05;100.00;100237.56;4804580;29;20225;-63
2022/10/01 00:14:32;;;;;;;0.20;0.20;;;7.00;99.90;;;7.13;100.00;100251.75;4805468;29;20222;-64
2022/10/01 00:16:59;;;;;;;0.20;0.20;;;7.10;99.90;;;7.11;100.00;100248.22;4807428;29;20687;-62
2022/10/01 00:19:27;;;;;;;0.10;0.10;;;7.10;99.90;;;7.11;100.00;100247.34;4804095;29;20222;-62
2022/10/01 00:21:55;;;;;;;0.20;0.20;;;7.10;99.90;;;7.12;100.00;100257.88;4802774;29;20225;-63
2022/10/01 00:24:23;;;;;;;0.20;0.20;;;7.10;99.90;;;7.05;100.00;100251.63;4778634;29;20238;-62
2022/10/01 00:26:51;;;;;;;0.20;0.20;;;7.10;99.90;;;7.00;100.00;100242.75;4788804;29;20246;-63
2022/10/01 00:29:18;;;;;;;0.57;0.57;;;7.00;99.90;;;7.00;100.00;100252.38;4781473;29;20226;-62
2022/10/01 00:31:46;;;;;;;0.20;0.20;;;7.00;99.90;;;7.02;100.00;100248.91;4790422;29;20221;-62
2022/10/01 00:34:14;;;;;;;0.20;0.20;;;7.00;99.90;;;6.97;100.00;100241.78;4787996;29;20240;-63
2022/10/01 00:36:42;;;;;;;0.22;0.22;;;7.00;99.90;;;6.97;100.00;100239.16;4798837;29;20227;-63
2022/10/01 00:39:11;;;;;;;0.20;0.20;;;7.00;99.90;;;7.07;100.00;100247.28;4798988;29;20218;-63
2022/10/01 00:41:39;;;;;;;0.20;0.20;;;7.00;99.90;;;7.09;100.00;100249.94;4801249;29;20211;-64
2022/10/01 00:44:28;;;;;;;0.20;0.20;;;7.00;99.90;;;7.11;100.00;100253.47;4800514;29;20227;-63
2022/10/01 00:47:20;;;;;;;0.20;0.20;;;7.10;99.90;;;7.14;100.00;100256.16;4801441;29;20222;-63
2022/10/01 00:49:52;;;;;;;0.20;0.20;;;7.10;99.90;;;7.15;100.00;100251.78;4795652;29;20227;-63
2022/10/01 00:52:30;;;;;;;0.20;0.20;;;7.10;99.90;;;7.19;100.00;100257.16;4792969;29;20209;-64
2022/10/01 00:55:10;;;;;;;0.20;0.20;;;7.20;99.90;;;7.19;100.00;100256.25;4820584;29;20730;-64
2022/10/01 00:57:39;;;;;;;0.20;0.20;;;7.10;99.90;;;7.17;100.00;100258.84;4810160;29;20215;-63
2022/10/01 01:00:09;;;;;;;0.20;0.20;;;7.10;99.90;;;7.18;100.00;100255.38;4825325;29;20218;-63
2022/10/01 01:02:38;;;;;;;0.20;0.20;;;7.20;99.90;;;7.26;100.00;100264.28;4785363;29;20210;-64
2022/10/01 01:05:07;;;;;;;0.20;0.20;;;7.20;99.90;;;7.32;100.00;100271.41;4819912;29;20238;-63
2022/10/01 01:07:36;;;;;;;0.13;0.13;;;7.20;99.90;;;7.38;100.00;100272.44;4813429;29;20249;-63
2022/10/01 01:10:05;;;;;;;0.30;0.30;;;7.30;99.90;;;7.48;100.00;100273.50;4810964;29;20215;-65
2022/10/01 01:13:10;;;;;;;0.10;0.10;;;7.40;99.90;;;7.54;100.00;100275.34;4790792;29;20671;-62
2022/10/01 01:15:42;;;;;;;0.20;0.20;;;7.50;99.90;;;7.62;100.00;100285.16;4809130;29;20214;-63
2022/10/01 01:18:40;;;;;;;0.20;0.20;;;7.60;99.90;;;7.65;100.00;100279.94;4800471;29;20400;-63
2022/10/01 01:21:19;;;;;;;0.20;0.20;;;7.60;99.90;;;7.76;100.00;100277.50;4790215;29;20677;-62
2022/10/01 01:24:28;;;;;;;0.20;0.20;;;7.70;99.90;;;7.85;100.00;100292.63;4821564;29;20249;-63
2022/10/01 01:27:33;;;;;;;0.20;0.20;;;7.80;99.90;;;7.93;100.00;100288.38;4777133;29;20229;-62
2022/10/01 01:30:10;;;;;;;0.10;0.10;;;7.90;99.90;;;8.03;100.00;100279.75;4812101;29;20214;-63
2022/10/01 01:32:45;;;;;;;0.10;0.10;;;8.00;99.90;;;8.11;100.00;100282.53;4806614;29;20210;-62
2022/10/01 01:35:31;;;;;;;0.20;0.20;;;8.10;99.90;;;8.10;100.00;100267.56;4806629;29;20241;-61
2022/10/01 01:38:07;;;;;;;0.10;0.10;;;8.10;99.90;;;8.13;100.00;100263.25;4811298;29;20219;-62
2022/10/01 01:40:38;;;;;;;0.20;0.20;;;8.10;99.90;;;8.10;100.00;100263.19;4821132;29;20218;-62
2022/10/01 01:43:12;;;;;;;0.20;0.20;;;8.10;99.90;;;8.10;100.00;100249.13;4799413;29;20215;-62
2022/10/01 01:45:42;;;;;;;0.20;0.20;;;8.10;99.90;;;8.06;100.00;100240.31;4808596;29;20218;-63
2022/10/01 01:48:11;;;;;;;0.20;0.20;;;8.10;99.90;;;8.02;100.00;100227.94;4826911;29;20253;-62
2022/10/01 01:50:47;;;;;;;0.50;0.50;;;8.00;99.90;;;8.05;100.00;100228.00;4798583;29;20210;-63
2022/10/01 01:53:15;;;;;;;0.10;0.10;;;8.00;99.90;;;8.02;100.00;100223.56;4818259;29;20233;-62
2022/10/01 01:55:48;;;;;;;0.22;0.22;;;8.00;99.90;;;8.01;100.00;100219.16;4789507;29;20472;-63
2022/10/01 01:58:19;;;;;;;0.20;0.20;;;8.00;99.90;;;8.05;100.00;100225.38;4881969;23;20229;-82
2022/10/01 02:00:53;;;;;;;0.20;0.20;;;8.00;99.90;;;8.12;100.00;100229.88;4861146;29;20221;-80
2022/10/01 02:03:28;;;;;;;0.20;0.20;;;8.10;99.90;;;8.21;100.00;100235.28;4862413;29;20221;-82
2022/10/01 02:06:11;;;;;;;0.20;0.20;;;8.20;99.90;;;8.26;100.00;100232.72;4859858;29;20223;-82
2022/10/01 02:09:04;;;;;;;0.20;0.20;;;8.20;99.90;;;8.37;100.00;100235.53;4861159;29;20677;-82
2022/10/01 02:11:38;;;;;;;0.10;0.10;;;8.30;99.90;;;8.43;100.00;100225.09;4849743;29;20217;-81
2022/10/01 02:14:35;;;;;;;0.20;0.20;;;8.40;99.90;;;8.54;100.00;100229.66;4863836;29;20579;-81
2022/10/01 02:17:21;;;;;;;0.10;0.10;;;8.50;99.90;;;8.65;100.00;100225.41;4872428;29;20216;-80
2022/10/01 02:20:02;;;;;;;0.17;0.17;;;8.60;99.90;;;8.73;100.00;100221.97;4860857;29;20209;-81
2022/10/01 02:22:48;;;;;;;0.10;0.10;;;8.70;99.90;;;8.78;100.00;100220.28;4874081;29;20252;-81
2022/10/01 02:25:23;;;;;;;0.20;0.20;;;8.70;99.90;;;8.87;100.00;100226.56;4861059;29;20241;-80
2022/10/01 02:27:59;;;;;;;0.10;0.10;;;8.80;99.90;;;8.95;100.00;100226.66;4864905;29;20244;-81
2022/10/01 02:30:31;;;;;;;0.10;0.10;;;8.90;99.90;;;8.94;100.00;100222.25;4857673;29;20217;-81
2022/10/01 02:33:02;;;;;;;0.10;0.10;;;8.90;99.90;;;8.98;100.00;100211.75;4866023;29;20221;-82
2022/10/01 02:35:33;;;;;;;0.20;0.20;;;9.00;99.90;;;9.05;100.00;100212.72;4870872;29;20209;-81
2022/10/01 02:38:06;;;;;;;0.10;0.10;;;9.00;99.90;;;9.03;100.00;100198.63;4864834;29;20244;-82
2022/10/01 02:40:41;;;;;;;0.10;0.10;;;9.00;99.90;;;9.09;100.00;100197.81;4862702;29;20214;-81
2022/10/01 02:43:24;;;;;;;0.20;0.20;;;9.10;99.90;;;9.11;100.00;100186.44;4858214;29;20212;-81
2022/10/01 02:45:59;;;;;;;0.10;0.10;;;9.10;99.90;;;9.10;100.00;100170.56;4875175;29;20225;-82
2022/10/01 02:48:27;;;;;;;0.10;0.10;;;9.10;99.90;;;9.08;100.00;100165.25;4860649;29;20236;-81
2022/10/01 02:51:28;;;;;;;0.10;0.10;;;9.10;99.90;;;9.10;100.00;100160.94;4863320;29;20218;-81
2022/10/01 02:54:14;;;;;;;0.10;0.10;;;9.10;99.90;;;9.12;100.00;100158.31;4859314;29;20222;-81
2022/10/01 02:59:29;;;;;;;0.20;0.20;;;9.10;99.90;;;9.10;100.00;100147.72;4857758;29;20237;-82
2022/10/01 03:01:57;;;;;;;0.10;0.10;;;9.10;99.90;;;9.12;100.00;100145.09;4860312;29;20721;-81
2022/10/01 03:04:25;;;;;;;0.10;0.10;;;9.10;99.90;;;9.16;100.00;100146.91;4860369;29;20213;-81
2022/10/01 03:06:53;;;;;;;0.10;0.10;;;9.10;99.90;;;9.16;100.00;100146.91;4861413;29;20209;-82
2022/10/01 03:09:21;;;;;;;0.10;0.10;;;9.10;99.90;;;9.13;100.00;100138.97;4859100;29;20240;-81
2022/10/01 03:11:49;;;;;;;0.10;0.10;;;9.10;99.90;;;9.17;100.00;100133.75;4869447;29;20213;-80
2022/10/01 03:14:17;;;;;;;0.20;0.20;;;9.10;99.90;;;9.18;100.00;100130.22;4863782;29;20221;-82
2022/10/01 03:16:44;;;;;;;0.20;0.20;;;9.20;99.90;;;9.20;100.00;100133.75;4875223;29;20217;-81
2022/10/01 03:19:12;;;;;;;0.20;0.20;;;9.20;99.90;;;9.18;100.00;100135.50;4864264;29;20229;-81
2022/10/01 03:21:40;;;;;;;0.20;0.20;;;9.20;99.90;;;9.26;100.00;100136.47;4864163;29;20209;-81
2022/10/01 03:24:09;;;;;;;0.10;0.10;;;9.20;99.90;;;9.24;100.00;100134.69;4860750;29;20232;-82
2022/10/01 03:26:36;;;;;;;0.10;0.10;;;9.20;99.90;;;9.28;100.00;100133.84;4859687;29;20202;-81
2022/10/01 03:29:05;;;;;;;0.10;0.10;;;9.20;99.90;;;9.27;100.00;100132.06;4860543;29;20299;-81
2022/10/01 03:31:33;;;;;;;0.10;0.10;;;9.20;99.90;;;9.26;100.00;100127.66;4864232;29;20213;-82
2022/10/01 03:34:01;;;;;;;0.10;0.10;;;9.20;99.90;;;9.26;100.00;100125.03;4862853;29;20220;-82
2022/10/01 03:36:29;;;;;;;0.10;0.10;;;9.20;99.90;;;9.25;100.00;100116.22;4863275;29;20221;-81
2022/10/01 03:38:57;;;;;;;0.13;0.13;;;9.20;99.90;;;9.26;100.00;100114.47;4863931;29;20241;-81
2022/10/01 03:41:25;;;;;;;0.10;0.10;;;9.20;99.90;;;9.24;100.00;100113.56;4875361;29;20205;-81
2022/10/01 03:43:53;;;;;;;0.17;0.17;;;9.20;99.90;;;9.24;100.00;100113.56;4858881;29;20217;-82
2022/10/01 03:46:27;;;;;;;0.10;0.10;;;9.20;99.90;;;9.24;100.00;100108.28;4860709;29;20209;-82
2022/10/01 03:48:57;;;;;;;0.10;0.10;;;9.20;99.90;;;9.23;100.00;100103.88;4863778;29;20233;-82
2022/10/01 03:51:29;;;;;;;0.20;0.20;;;9.20;99.90;;;9.22;100.00;100100.38;4865751;29;20218;-81
2022/10/01 03:53:58;;;;;;;0.10;0.10;;;9.20;99.90;;;9.23;100.00;100103.88;4864565;29;20678;-81
2022/10/01 03:56:26;;;;;;;0.20;0.20;;;9.20;99.90;;;9.26;100.00;100106.56;4858655;29;20213;-83
2022/10/01 03:58:54;;;;;;;0.10;0.10;;;9.20;99.90;;;9.25;100.00;100096.88;4860230;29;20245;-82
2022/10/01 04:01:22;;;;;;;0.10;0.10;;;9.20;99.90;;;9.22;100.00;100100.38;4859026;29;20214;-82
2022/10/01 04:03:50;;;;;;;0.10;0.10;;;9.20;99.90;;;9.22;100.00;100092.44;4863272;29;20213;-82
2022/10/01 04:06:19;;;;;;;0.32;0.32;;;9.20;99.90;;;9.22;100.00;100097.72;4861645;29;20221;-81
2022/10/01 04:08:47;;;;;;;0.10;0.10;;;9.20;99.90;;;9.19;100.00;100104.72;4855941;29;20240;-83
2022/10/01 04:11:15;;;;;;;0.10;0.10;;;9.20;99.90;;;9.18;100.00;100109.13;4872143;29;20700;-81
2022/10/01 04:13:43;;;;;;;0.10;0.10;;;9.20;99.90;;;9.16;100.00;100110.88;4872057;29;20213;-80
2022/10/01 04:16:11;;;;;;;0.10;0.10;;;9.20;99.90;;;9.11;100.00;100117.84;4870360;29;20214;-81
2022/10/01 04:18:39;;;;;;;0.10;0.10;;;9.10;99.90;;;9.15;100.00;100126.69;4854159;29;20234;-81
2022/10/01 04:21:07;;;;;;;0.10;0.10;;;9.10;99.90;;;9.10;100.00;100131.91;4854243;29;20221;-81
2022/10/01 04:23:35;;;;;;;0.10;0.10;;;9.10;99.90;;;9.07;100.00;100128.31;4856793;29;20212;-83
2022/10/01 04:26:03;;;;;;;0.10;0.10;;;9.10;99.90;;;9.06;100.00;100130.06;4854625;29;20225;-83
2022/10/01 04:28:31;;;;;;;0.10;0.10;;;9.10;99.90;;;9.06;100.00;100147.66;4860599;29;20241;-85
2022/10/01 04:33:46;;;;;;;0.10;0.10;;;9.00;99.90;;;9.03;100.00;100137.94;4858609;29;20217;-80
2022/10/01 04:36:14;;;;;;;0.10;0.10;;;9.00;99.90;;;8.99;100.00;100131.75;4871071;29;20205;-81
2022/10/01 04:38:42;;;;;;;0.10;0.10;;;9.00;99.90;;;9.01;100.00;100138.81;4855090;29;20225;-82
2022/10/01 04:41:10;;;;;;;0.10;0.10;;;9.00;99.90;;;8.98;100.00;100143.19;4855283;29;20221;-81
2022/10/01 04:43:39;;;;;;;0.10;0.10;;;9.00;99.90;;;8.97;100.00;100140.53;4858571;29;20237;-81
2022/10/01 04:46:07;;;;;;;0.10;0.10;;;9.00;99.90;;;8.97;100.00;100143.16;4857083;29;20217;-82
2022/10/01 04:48:35;;;;;;;0.10;0.10;;;9.00;99.90;;;8.98;100.00;100144.94;4854692;29;20225;-81
2022/10/01 04:51:03;;;;;;;0.10;0.10;;;9.00;99.90;;;8.97;100.00;100137.88;4853243;29;20237;-81
2022/10/01 04:53:31;;;;;;;0.10;0.10;;;9.00;99.90;;;8.98;100.00;100152.84;4856468;29;20201;-83
2022/10/01 04:55:59;;;;;;;0.20;0.20;;;9.00;99.90;;;8.95;100.00;100158.09;4870440;29;20209;-83
2022/10/01 04:58:27;;;;;;;0.10;0.10;;;8.90;99.90;;;8.95;100.00;100164.25;4858864;29;20235;-81
2022/10/01 05:00:54;;;;;;;0.10;0.10;;;8.90;99.90;;;8.96;100.00;100167.78;4870302;29;20205;-79
2022/10/01 05:03:28;;;;;;;0.10;0.10;;;8.90;99.90;;;8.96;100.00;100166.00;4859387;29;20237;-81
2022/10/01 05:05:56;;;;;;;0.10;0.10;;;9.00;99.90;;;8.97;100.00;100161.63;4858303;29;20216;-81
2022/10/01 05:08:24;;;;;;;0.10;0.10;;;8.90;99.90;;;8.95;100.00;100158.97;4873155;29;20225;-80
2022/10/01 05:10:52;;;;;;;0.10;0.10;;;8.90;99.90;;;8.96;100.00;100159.84;4859645;29;20243;-80
2022/10/01 05:13:20;;;;;;;0.10;0.10;;;8.90;99.90;;;8.97;100.00;100157.22;4837473;29;20553;-81
2022/10/01 05:15:50;;;;;;;0.20;0.20;;;8.90;99.90;;;8.96;100.00;100150.19;4859720;29;20218;-80
2022/10/01 05:18:19;;;;;;;0.13;0.13;;;8.90;99.90;;;8.96;100.00;100162.50;4858772;29;20232;-81
2022/10/01 05:20:47;;;;;;;0.17;0.17;;;9.00;99.90;;;8.97;100.00;100166.91;4857266;29;20213;-80
2022/10/01 05:23:15;;;;;;;0.10;0.10;;;9.00;99.90;;;8.97;100.00;100159.88;4862878;29;20209;-80
2022/10/01 05:25:43;;;;;;;0.20;0.20;;;9.00;99.90;;;8.98;100.00;100163.41;4871488;29;20233;-83
2022/10/01 05:28:12;;;;;;;0.10;0.10;;;9.00;99.90;;;8.99;100.00;100157.25;4856549;29;21133;-80
2022/10/01 05:30:46;;;;;;;0.10;0.10;;;9.00;99.90;;;8.98;100.00;100142.28;4857223;29;20228;-80
2022/10/01 05:33:14;;;;;;;0.10;0.10;;;9.00;99.90;;;9.00;100.00;100145.84;4858981;29;20223;-80
2022/10/01 05:35:43;;;;;;;0.10;0.10;;;9.00;99.90;;;9.00;100.00;100151.09;4860515;29;20232;-80
2022/10/01 05:38:11;;;;;;;0.20;0.20;;;9.00;99.90;;;9.01;100.00;100144.97;4861763;29;20244;-80
2022/10/01 05:40:39;;;;;;;0.10;0.10;;;9.00;99.90;;;9.03;100.00;100156.41;4863579;29;20217;-81
2022/10/01 05:43:08;;;;;;;0.10;0.10;;;9.00;99.90;;;9.07;100.00;100159.97;4858962;29;20213;-81
2022/10/01 05:45:35;;;;;;;0.10;0.10;;;9.10;99.90;;;9.08;100.00;100170.53;4855423;29;20213;-80
2022/10/01 05:48:07;;;;;;;0.10;0.10;;;9.10;99.90;;;9.10;100.00;100174.13;4870328;29;20240;-81
2022/10/01 05:50:39;;;;;;;0.10;0.10;;;9.10;99.90;;;9.13;100.00;100170.63;4866691;29;20240;-80
2022/10/01 05:53:10;;;;;;;0.57;0.57;;;9.10;99.90;;;9.13;100.00;100170.63;4851354;29;20214;-80
2022/10/01 05:55:38;;;;;;;0.10;0.10;;;9.10;99.90;;;9.17;100.00;100183.84;4854017;29;20574;-80
2022/10/01 05:58:09;;;;;;;0.10;0.10;;;9.20;99.90;;;9.20;100.00;100180.38;4854094;29;20233;-80
2022/10/01 06:00:39;;;;;;;0.50;0.50;;;9.20;99.90;;;9.21;100.00;100175.09;4855445;29;20224;-81
2022/10/01 06:03:11;;;;;;;0.10;0.10;;;9.20;99.90;;;9.26;100.00;100167.25;4869473;29;20212;-83
2022/10/01 06:05:43;;;;;;;0.10;0.10;;;9.20;99.90;;;9.26;100.00;100165.47;4869296;29;20221;-84
2022/10/01 06:08:11;;;;;;;0.20;0.20;;;9.20;99.90;;;9.29;100.00;100162.00;4850498;29;20233;-80
2022/10/01 06:10:40;;;;;;;0.10;0.10;;;9.30;99.90;;;9.34;100.00;100157.66;4862641;29;20241;-80
2022/10/01 06:13:07;;;;;;;0.10;0.10;;;9.30;99.90;;;9.37;100.00;100151.50;4875066;29;20216;-81
2022/10/01 06:15:37;;;;;;;0.10;0.10;;;9.40;99.90;;;9.38;100.00;100140.09;4867565;29;20205;-80
2022/10/01 06:18:08;;;;;;;0.10;0.10;;;9.40;99.90;;;9.39;100.00;100148.00;4858350;29;20263;-82
2022/10/01 06:20:37;;;;;;;0.10;0.10;;;9.40;99.90;;;9.42;100.00;100144.53;4856676;29;20217;-80
2022/10/01 06:23:10;;;;;;;0.10;0.10;;;9.40;99.90;;;9.46;100.00;100138.41;4873365;29;20220;-81
2022/10/01 06:25:42;;;;;;;0.20;0.20;;;9.40;99.90;;;9.46;100.00;100135.75;4864808;29;20209;-81
2022/10/01 06:28:13;;;;;;;0.10;0.10;;;9.40;99.90;;;9.46;100.00;100139.28;4868145;29;20701;-81
2022/10/01 06:30:42;;;;;;;0.10;0.10;;;9.40;99.90;;;9.45;100.00;100134.88;4864244;29;20603;-80
2022/10/01 06:33:13;;;;;;;0.20;0.20;;;9.40;99.90;;;9.48;100.00;100144.56;4867260;29;20213;-80
2022/10/01 06:35:48;;;;;;;0.15;0.15;;;9.40;99.90;;;9.43;100.00;100141.91;4870064;29;20217;-82
2022/10/01 06:38:21;;;;;;;0.10;0.10;;;9.40;99.90;;;9.45;100.00;100150.72;4871377;29;20238;-80
2022/10/01 06:40:58;;;;;;;0.10;0.10;;;9.40;99.90;;;9.48;100.00;100163.06;4865577;29;20222;-80
2022/10/01 06:43:28;;;;;;;0.10;0.10;;;9.40;99.90;;;9.44;100.00;100159.50;4863840;29;20223;-81
2022/10/01 06:46:01;;;;;;;0.20;0.20;;;9.40;99.90;;;9.43;100.00;100165.66;4860059;29;20213;-79
2022/10/01 06:48:30;;;;;;;0.10;0.10;;;9.40;99.90;;;9.45;100.00;100163.91;4869193;29;20229;-80
2022/10/01 06:50:58;;;;;;;0.10;0.10;;;9.40;99.90;;;9.47;100.00;100180.66;4873554;29;20702;-82
2022/10/01 06:53:27;;;;;;;0.10;0.10;;;9.40;99.90;;;9.49;100.00;100188.56;4876540;29;20229;-81
2022/10/01 06:55:55;;;;;;;0.10;0.10;;;9.50;99.90;;;9.52;100.00;100188.59;4864898;29;20218;-80
2022/10/01 06:58:25;;;;;;;0.30;0.30;;;9.50;99.90;;;9.52;100.00;100188.59;4879432;29;20237;-81
2022/10/01 07:01:02;;;;;;;0.10;0.10;;;9.50;99.90;;;9.53;100.00;100183.34;4858580;29;20209;-80
2022/10/01 07:03:31;;;;;;;0.10;0.10;;;9.50;99.90;;;9.55;100.00;100189.50;4869112;29;20205;-80
2022/10/01 07:06:06;;;;;;;0.10;0.10;;;9.50;99.90;;;9.55;100.00;100196.56;4894481;29;20228;-80
2022/10/01 07:08:34;;;;;;;0.10;0.10;;;9.50;99.90;;;9.56;100.00;100191.28;4863375;29;20251;-80
2022/10/01 07:11:03;;;;;;;0.10;0.10;;;9.50;99.90;;;9.61;100.00;100215.97;4866976;29;20244;-80
2022/10/01 07:13:31;;;;;;;0.10;0.10;;;9.50;99.90;;;9.62;100.00;100220.38;4862400;29;20209;-80
2022/10/01 07:16:03;;;;;;;0.10;0.10;;;9.60;99.90;;;9.63;100.00;100222.16;4864978;29;20586;-80
2022/10/01 07:18:31;;;;;;;0.10;0.10;;;9.60;99.90;;;9.64;100.00;100225.69;4858949;29;20233;-80
2022/10/01 07:21:00;;;;;;;0.10;0.10;;;9.60;99.90;;;9.69;100.00;100226.59;4859569;29;20210;-80
2022/10/01 07:23:28;;;;;;;0.10;0.10;;;9.60;99.90;;;9.68;100.00;100213.38;4864349;29;20220;-79
2022/10/01 07:25:56;;;;;;;0.10;0.10;;;9.70;99.90;;;9.68;100.00;100209.00;4862057;29;20225;-79
2022/10/01 07:28:25;;;;;;;0.10;0.10;;;9.70;99.90;;;9.73;100.00;100204.63;4870307;29;20744;-79
2022/10/01 07:31:00;;;;;;;0.73;0.73;;;9.70;99.90;;;9.70;100.00;100201.09;4865613;29;20236;-80
2022/10/01 07:33:29;;;;;;;0.20;0.20;;;9.70;99.90;;;9.70;100.00;100195.81;4867288;29;20212;-80
2022/10/01 07:36:01;;;;;;;0.10;0.10;;;9.70;99.90;;;9.71;100.00;100193.19;4861513;29;20647;-80
2022/10/01 07:38:29;;;;;;;0.10;0.10;;;9.70;99.90;;;9.74;100.00;100194.97;4866943;29;20229;-81
2022/10/01 07:40:57;;;;;;;0.10;0.10;;;9.70;99.90;;;9.74;100.00;100193.19;4862809;29;20237;-80
2022/10/01 07:43:26;;;;;;;0.10;0.10;;;9.70;99.90;;;9.78;100.00;100197.63;4867702;29;20220;-79
2022/10/01 07:45:56;;;;;;;0.10;0.10;;;9.70;99.90;;;9.78;100.00;100210.84;4868172;29;20210;-79
2022/10/01 07:48:26;;;;;;;0.10;0.10;;;9.80;99.90;;;9.78;100.00;100209.97;4859915;29;20239;-79
2022/10/01 07:50:55;;;;;;;0.20;0.20;;;9.80;99.90;;;9.77;100.00;100211.72;4858386;29;20604;-80
2022/10/01 07:53:24;;;;;;;0.10;0.10;;;9.70;99.90;;;9.80;100.00;100216.13;4858877;29;20216;-80
2022/10/01 07:55:52;;;;;;;0.10;0.10;;;9.80;99.90;;;9.81;100.00;100213.50;4858782;29;20662;-80
2022/10/01 07:58:22;;;;;;;0.10;0.10;;;9.80;99.90;;;9.82;100.00;100211.75;4860148;29;20245;-81
2022/10/01 08:00:56;;;;;;;0.10;0.10;;;9.80;99.90;;;9.81;100.00;100225.81;4854329;29;20225;-81
2022/10/01 08:03:25;;;;;;;0.20;0.20;;;9.80;99.90;;;9.81;100.00;100234.63;4857554;29;20239;-80
2022/10/01 08:05:53;;;;;;;0.10;0.10;;;9.80;99.90;;;9.82;100.00;100239.03;4871053;29;20399;-81
2022/10/01 08:08:22;;;;;;;0.10;0.10;;;9.80;99.90;;;9.82;100.00;100236.41;4875221;29;20240;-80
2022/10/01 08:10:50;;;;;;;0.10;0.10;;;9.80;99.90;;;9.84;100.00;100253.16;4869266;29;20237;-80
2022/10/01 08:13:19;;;;;;;0.10;0.10;;;9.80;99.90;;;9.84;100.00;100270.75;4869307;29;20213;-80
2022/10/01 08:15:52;;;;;;;0.10;0.10;;;9.80;99.90;;;9.84;100.00;100250.50;4869095;29;20221;-80
2022/10/01 08:18:23;;;;;;;0.10;0.10;;;9.80;99.90;;;9.82;100.00;100241.69;4873408;29;20239;-80
2022/10/01 08:20:51;;;;;;;0.10;0.10;;;9.80;99.90;;;9.83;100.00;100251.38;4869769;29;20213;-80
2022/10/01 08:23:20;;;;;;;0.10;0.10;;;9.80;99.90;;;9.84;100.00;100249.63;4859101;29;20201;-79
2022/10/01 08:25:49;;;;;;;0.10;0.10;;;9.80;99.90;;;9.86;100.00;100253.16;4872026;29;20219;-80
2022/10/01 08:28:22;;;;;;;0.10;0.10;;;9.80;99.90;;;9.85;100.00;100239.06;4852012;29;20238;-78
2022/10/01 08:30:52;;;;;;;0.10;0.10;;;9.80;99.90;;;9.86;100.00;100229.41;4868073;29;20221;-83
2022/10/01 08:33:20;;;;;;;0.10;0.10;;;9.80;99.90;;;9.88;100.00;100206.53;4854017;29;20217;-80
2022/10/01 08:35:48;;;;;;;0.10;0.10;;;9.80;99.90;;;9.86;100.00;100189.78;4856154;29;20213;-79
2022/10/01 08:38:18;;;;;;;0.10;0.10;;;9.80;99.90;;;9.85;100.00;100182.72;4876385;29;20231;-80
2022/10/01 08:40:50;;;;;;;0.10;0.10;;;9.80;99.90;;;9.84;100.00;100196.81;4866026;29;20228;-79
2022/10/01 08:43:37;;;;;;;0.10;0.10;;;9.80;99.90;;;9.86;100.00;100216.19;4860148;29;20232;-79
2022/10/01 08:46:17;;;;;;;0.10;0.10;;;9.80;99.90;;;9.89;100.00;100232.06;4872553;29;20235;-79
2022/10/01 08:49:19;;;;;;;0.10;0.10;;;9.90;99.90;;;9.94;100.00;100256.75;4859720;29;20244;-78
2022/10/01 08:52:32;;;;;;;0.10;0.10;;;9.90;99.90;;;9.96;100.00;100252.38;4869825;29;20244;-79
2022/10/01 08:55:19;;;;;;;0.10;0.10;;;9.90;99.90;;;9.99;100.00;100259.44;4841173;29;20208;-79
2022/10/01 08:58:01;;;;;;;0.10;0.10;;;9.90;99.90;;;10.01;100.00;100261.22;4880053;29;20241;-80
2022/10/01 09:00:33;;;;;;;0.10;0.10;;;10.00;99.90;;;10.01;100.00;100253.28;4875597;29;20220;-78
2022/10/01 09:03:08;;;;;;;0.10;0.10;;;10.00;99.90;;;10.03;100.00;100248.03;4863573;29;20219;-80
2022/10/01 09:06:20;;;;;;;0.10;0.10;;;10.00;99.90;;;9.99;100.00;100231.25;4858465;29;20220;-79
2022/10/01 09:09:19;;;;;;;0.10;0.10;;;10.10;99.90;;;10.00;100.00;100218.94;4862023;29;20229;-79
2022/10/01 09:12:30;;;;;;;0.10;0.10;;;10.00;99.90;;;10.00;100.00;100238.31;4863406;29;20239;-79
2022/10/01 09:15:16;;;;;;;0.13;0.13;;;10.00;99.90;;;10.03;100.00;100254.19;4882442;29;20243;-79
2022/10/01 09:18:14;;;;;;;0.10;0.10;;;10.00;99.90;;;10.09;100.00;100256.00;4875476;29;20246;-79
2022/10/01 09:20:59;;;;;;;0.10;0.10;;;10.00;99.90;;;10.10;100.00;100258.66;4870001;29;20209;-79
2022/10/01 09:23:41;;;;;;;0.10;0.10;;;10.10;99.90;;;10.17;100.00;100271.03;4849317;29;20215;-79
2022/10/01 09:26:11;;;;;;;0.10;0.10;;;10.10;99.90;;;10.18;100.00;100282.50;4877507;29;20212;-80
2022/10/01 09:28:40;;;;;;;0.10;0.10;;;10.10;99.90;;;10.21;100.00;100279.91;4866027;29;20220;-79
2022/10/01 09:31:36;;;;;;;0.10;0.10;;;10.10;99.90;;;10.23;100.00;100270.25;4861210;29;20209;-79
2022/10/01 09:34:21;;;;;;;0.10;0.10;;;10.20;99.90;;;10.23;100.00;100267.59;4864367;29;20224;-79
2022/10/01 09:37:23;;;;;;;0.10;0.10;;;10.20;99.90;;;10.27;100.00;100280.84;4866437;29;20213;-79
2022/10/01 09:40:31;;;;;;;0.10;0.10;;;10.20;99.90;;;10.29;100.00;100278.22;4861315;29;20208;-79
2022/10/01 09:42:59;;;;;;;0.10;0.10;;;10.20;99.90;;;10.32;100.00;100262.38;4850597;29;20220;-79
2022/10/01 09:45:27;;;;;;;0.10;0.10;;;10.30;99.90;;;10.38;100.00;100270.34;4850981;29;20208;-79
2022/10/01 09:48:13;;;;;;;0.10;0.10;;;10.30;99.90;;;10.45;100.00;100276.59;4854454;29;20243;-80
2022/10/01 09:50:55;;;;;;;0.10;0.10;;;10.40;99.90;;;10.51;100.00;100274.00;4852884;29;20216;-80
2022/10/01 09:53:40;;;;;;;0.10;0.10;;;10.40;99.90;;;10.54;100.00;100266.97;4854514;29;20237;-79
2022/10/01 09:56:27;;;;;;;0.10;0.10;;;10.50;99.90;;;10.64;100.00;100289.06;4841016;29;20236;-79
2022/10/01 09:59:01;;;;;;;0.10;0.10;;;10.60;99.90;;;10.66;100.00;100273.22;4872503;29;20237;-80
2022/10/01 10:01:42;;;;;;;0.10;0.10;;;10.60;99.90;;;10.77;100.00;100290.91;4855593;29;20204;-79
2022/10/01 10:04:20;;;;;;;0.10;0.10;;;10.70;99.90;;;10.82;100.00;100283.88;4857186;29;20217;-77
2022/10/01 10:07:09;;;;;;;0.10;0.10;;;10.70;99.90;;;10.89;100.00;100288.34;4866518;29;20208;-80
2022/10/01 10:09:37;;;;;;;0.10;0.10;;;10.80;99.90;;;10.86;100.00;100279.50;4874246;29;20233;-80
2022/10/01 10:12:09;;;;;;;0.73;0.73;;;10.80;99.90;;;10.90;100.00;100287.47;4859175;29;20229;-79
2022/10/01 10:14:43;;;;;;;0.10;0.10;;;10.80;99.90;;;11.01;100.00;100284.88;4866612;29;20220;-79
2022/10/01 10:17:16;;;;;;;0.10;0.10;;;10.90;99.90;;;10.96;100.00;100280.44;4856038;29;20212;-77
2022/10/01 10:19:50;;;;;;;0.10;0.10;;;10.90;99.90;;;10.97;100.00;100284.84;4842881;29;20241;-77
2022/10/01 10:22:25;;;;;;;0.10;0.10;;;10.90;99.90;;;10.95;100.00;100290.13;4857296;29;20615;-77
2022/10/01 10:24:57;;;;;;;0.10;0.10;;;10.90;99.90;;;10.98;100.00;100295.44;4858081;29;20678;-77
2022/10/01 10:27:29;;;;;;;0.10;0.10;;;10.90;99.90;;;11.02;100.00;100302.50;4850547;29;20225;-78
2022/10/01 10:30:16;;;;;;;0.10;0.10;;;11.00;99.90;;;11.08;100.00;100306.94;4852038;29;20209;-78
2022/10/01 10:32:46;;;;;;;0.10;0.10;;;11.00;99.90;;;11.11;100.00;100315.78;4851172;29;20240;-78
2022/10/01 10:35:21;;;;;;;0.10;0.10;;;11.00;99.90;;;11.11;100.00;100321.09;4851185;29;20225;-77
2022/10/01 10:37:54;;;;;;;0.10;0.10;;;11.00;99.90;;;11.16;100.00;100329.03;4847771;29;20229;-79
2022/10/01 10:40:26;;;;;;;0.10;0.10;;;11.10;99.90;;;11.13;100.00;100319.31;4847215;29;20220;-78
2022/10/01 10:42:58;;;;;;;0.10;0.10;;;11.10;99.90;;;11.18;100.00;100322.00;4851297;29;20224;-78
2022/10/01 10:45:37;;;;;;;0.00;0.00;;;11.10;99.90;;;11.27;100.00;100331.75;4849991;29;20225;-78
2022/10/01 10:48:12;;;;;;;0.10;0.10;;;11.20;99.90;;;11.28;100.00;100326.44;4849294;29;20229;-78
2022/10/01 10:50:44;;;;;;;0.10;0.10;;;11.20;99.90;;;11.35;100.00;100332.66;4846249;29;20224;-79